Skip Navigation Links Skip Navigation Links

Current Weather

Danbury Muni, Danbury, Conn.

For information only: do not use for flight planning or navigation.
Latest weather
Observation time Saturday, June 6, 2020 5:53 PM EDT
Local time Saturday, June 6, 2020 6:37 PM EDT
Flight conditions Visual Meteorological Conditions
Winds
Wind direction West (280°)
Wind speed 12 mph
Wind gusting to 22 mph
Visibility 10 mi.
Sky condition
Ceiling unlimited
Sky clear
Temperature 82°F
Dewpoint 59°F
Altimeter 29.70 in.Hg
Derived measurements
Relative humidity 46%
Heat index 82°F
Density altitude 2420 ft.
Sea-level pressure 29.68 in.Hg
Remarks
Automated weather observing station with precipitation discriminator.
METAR KDXR 062153Z 28010G19KT 10SM CLR 28/15 A2970 RMK AO2 SLP051 T02780150

Settings

Location code

InnerDrive.Weather 4.0.6770.0 Release CLR 4.0.30319.42000
Copyright ©2018 Inner Drive Technology. All rights reserved. Portions Copyright ©1986-2018 David Braverman.

Find weather

Site navigation


Skip Navigation Links

Place info

Page info

PayPal - The safer, easier way to pay online!

Return home.

Copyright ©2020 Inner Drive Technology. Purveyors of fine, hand-crafted computer software. Page printed 2020-06-06T22:37:20 UTC.